Barro, Brazil
Current Conditions -  °F | °C
As of 3:00 PM on Monday 24 Nov 2014 (Local Time) from SBJU Reporting Station
Scattered Clouds Scattered Clouds  
Wind Chill: 97°   Ceiling: Unl
Heat Index: 97°   Visibility: 6mi
Dew Point: 57°   Wind: 5mph
Humidity: 27%   Direction: 150°SSE
Pressure: 29.94"   Gusts: NA
Location:  7.18°S, 38.78°W
Report Text: SBJU 241800Z 15004KT 9999 SCT022 36/14 Q1014
Loading
Personal Weather Stations






























Interactive Weather Map New forecast layout! Learn more

10-Day Weather Forecast

Advertisements
Track Severe Weather on mobile